createdAt,value
2023-08-13T00:00:17.765Z,24.26
2023-08-13T00:03:10.475Z,24.21
2023-08-13T00:05:43.034Z,24.17
2023-08-13T00:08:15.591Z,24.13
2023-08-13T00:10:48.155Z,24.11
2023-08-13T00:13:20.546Z,24.07
2023-08-13T00:15:52.730Z,24.04
2023-08-13T00:18:24.913Z,24.00
2023-08-13T00:20:56.971Z,23.97
2023-08-13T00:23:29.753Z,23.93
2023-08-13T00:26:02.179Z,23.90
2023-08-13T00:28:34.947Z,23.85
2023-08-13T00:31:07.272Z,23.67
2023-08-13T00:33:39.663Z,23.75
2023-08-13T00:36:12.166Z,23.70
2023-08-13T00:38:44.970Z,23.66
2023-08-13T00:41:17.229Z,23.62
2023-08-13T00:43:50.891Z,23.59
2023-08-13T00:46:23.696Z,23.54
2023-08-13T00:49:00.041Z,23.41
2023-08-13T00:51:33.291Z,23.46
2023-08-13T00:54:06.324Z,23.43
2023-08-13T00:56:39.233Z,23.37
2023-08-13T00:59:12.352Z,23.31
2023-08-13T01:01:45.734Z,23.18
2023-08-13T01:04:18.266Z,23.23
2023-08-13T01:07:04.429Z,23.18
2023-08-13T01:09:45.865Z,23.20
2023-08-13T01:12:24.795Z,23.15
2023-08-13T01:15:07.556Z,23.03
2023-08-13T01:17:42.068Z,23.06
2023-08-13T01:20:15.636Z,23.03
2023-08-13T01:22:50.946Z,22.96
2023-08-13T01:25:26.391Z,22.83
2023-08-13T01:28:04.254Z,22.80
2023-08-13T01:30:40.709Z,22.87
2023-08-13T01:33:14.898Z,22.86
2023-08-13T01:35:49.221Z,22.62
2023-08-13T01:38:22.962Z,22.53
2023-08-13T01:40:55.789Z,22.55
2023-08-13T01:43:28.674Z,22.53
2023-08-13T01:46:02.947Z,22.39
2023-08-13T01:48:35.381Z,22.45
2023-08-13T01:51:08.015Z,22.39
2023-08-13T01:53:40.802Z,22.49
2023-08-13T01:56:12.961Z,22.44
2023-08-13T01:58:45.296Z,22.41
2023-08-13T02:01:17.504Z,22.66
2023-08-13T02:03:50.104Z,22.77
2023-08-13T02:06:23.744Z,22.92
2023-08-13T02:08:56.095Z,22.97
2023-08-13T02:11:28.612Z,22.93
2023-08-13T02:14:02.197Z,22.77
2023-08-13T02:16:34.681Z,22.60
2023-08-13T02:19:07.610Z,22.41
2023-08-13T02:21:39.600Z,22.33
2023-08-13T02:24:12.178Z,22.48
2023-08-13T02:26:44.660Z,22.29
2023-08-13T02:29:16.897Z,22.39
2023-08-13T02:31:49.241Z,22.37
2023-08-13T02:34:21.563Z,22.38
2023-08-13T02:36:54.199Z,22.24
2023-08-13T02:39:26.483Z,22.13
2023-08-13T02:41:59.001Z,22.18
2023-08-13T02:44:31.285Z,22.23
2023-08-13T02:47:03.365Z,22.31
2023-08-13T02:49:35.509Z,22.25
2023-08-13T02:52:08.305Z,22.21
2023-08-13T02:54:40.404Z,22.09
2023-08-13T02:57:12.530Z,22.12
2023-08-13T02:59:44.745Z,22.06
2023-08-13T03:02:18.160Z,21.96
2023-08-13T03:04:50.419Z,22.03
2023-08-13T03:07:22.722Z,22.02
2023-08-13T03:09:54.941Z,22.13
2023-08-13T03:12:27.488Z,22.06
2023-08-13T03:14:59.832Z,22.03
2023-08-13T03:17:32.172Z,22.03
2023-08-13T03:20:04.983Z,21.95
2023-08-13T03:22:38.448Z,21.99
2023-08-13T03:25:11.506Z,22.24
2023-08-13T03:27:43.754Z,22.44
2023-08-13T03:30:19.521Z,22.28
2023-08-13T03:32:52.631Z,22.42
2023-08-13T03:35:25.464Z,22.39
2023-08-13T03:37:57.769Z,22.40
2023-08-13T03:40:30.446Z,22.28
2023-08-13T03:43:03.137Z,22.06
2023-08-13T03:45:35.855Z,21.98
2023-08-13T03:48:08.848Z,22.07
2023-08-13T03:50:45.251Z,21.97
2023-08-13T03:53:23.502Z,22.11
2023-08-13T03:55:56.072Z,22.38
2023-08-13T03:58:28.792Z,22.56
2023-08-13T04:01:07.578Z,22.57
2023-08-13T04:03:40.810Z,22.57
2023-08-13T04:06:12.885Z,22.64
2023-08-13T04:08:45.442Z,22.71
2023-08-13T04:11:18.082Z,22.71
2023-08-13T04:13:50.646Z,22.74
2023-08-13T04:16:23.492Z,22.79
2023-08-13T04:18:55.902Z,22.79
2023-08-13T04:21:29.226Z,22.78
2023-08-13T04:24:01.510Z,22.74
2023-08-13T04:26:33.962Z,22.73
2023-08-13T04:29:06.446Z,22.81
2023-08-13T04:31:38.840Z,22.81
2023-08-13T04:34:11.056Z,22.70
2023-08-13T04:36:43.359Z,22.75
2023-08-13T04:39:17.173Z,22.69
2023-08-13T04:41:49.648Z,22.79
2023-08-13T04:44:23.877Z,22.76
2023-08-13T04:46:56.253Z,22.82
2023-08-13T04:49:29.082Z,22.77
2023-08-13T04:52:01.425Z,22.84
2023-08-13T04:54:33.926Z,22.87
2023-08-13T04:57:06.229Z,22.93
2023-08-13T04:59:38.815Z,22.91
2023-08-13T05:02:11.436Z,22.85
2023-08-13T05:04:44.238Z,22.89
2023-08-13T05:07:16.674Z,22.83
2023-08-13T05:09:49.321Z,22.84
2023-08-13T05:12:21.595Z,22.87
2023-08-13T05:14:54.376Z,22.85
2023-08-13T05:17:27.451Z,22.82
2023-08-13T05:19:59.764Z,22.85
2023-08-13T05:22:32.173Z,22.87
2023-08-13T05:25:04.837Z,22.95
2023-08-13T05:27:37.150Z,22.91
2023-08-13T05:30:11.395Z,22.87
2023-08-13T05:32:44.392Z,22.89
2023-08-13T05:35:16.988Z,22.85
2023-08-13T05:37:49.382Z,22.89
2023-08-13T05:40:21.842Z,22.89
2023-08-13T05:42:54.268Z,22.90
2023-08-13T05:45:26.840Z,22.88
2023-08-13T05:47:59.503Z,22.89
2023-08-13T05:50:35.186Z,22.81
2023-08-13T05:53:08.011Z,22.82
2023-08-13T05:55:40.813Z,22.76
2023-08-13T05:58:13.012Z,22.84
2023-08-13T06:00:45.578Z,22.87
2023-08-13T06:03:17.795Z,22.92
2023-08-13T06:05:50.728Z,22.86
2023-08-13T06:08:22.955Z,22.96
2023-08-13T06:10:55.787Z,22.97
2023-08-13T06:13:28.067Z,23.04
2023-08-13T06:16:00.628Z,23.07
2023-08-13T06:18:32.940Z,23.08
2023-08-13T06:21:05.991Z,23.09
2023-08-13T06:23:40.084Z,23.07
2023-08-13T06:26:12.738Z,23.17
2023-08-13T06:28:45.320Z,23.27
2023-08-13T06:31:32.902Z,23.33
2023-08-13T06:34:10.178Z,23.38
2023-08-13T06:36:42.486Z,23.33
2023-08-13T06:39:14.682Z,23.44
2023-08-13T06:41:47.033Z,23.54
2023-08-13T06:44:22.180Z,23.53
2023-08-13T06:46:54.808Z,23.60
2023-08-13T06:49:26.974Z,23.45
2023-08-13T06:51:59.375Z,23.68
2023-08-13T06:54:31.560Z,23.80
2023-08-13T06:57:04.030Z,23.80
2023-08-13T06:59:36.168Z,23.78
2023-08-13T07:02:08.384Z,23.80
2023-08-13T07:04:40.762Z,23.79
2023-08-13T07:07:13.178Z,23.79
2023-08-13T07:09:45.495Z,23.89
2023-08-13T07:12:18.204Z,23.91
2023-08-13T07:14:50.727Z,23.95
2023-08-13T07:17:23.552Z,23.88
2023-08-13T07:19:55.752Z,23.93
2023-08-13T07:22:27.819Z,24.03
2023-08-13T07:25:00.732Z,24.10
2023-08-13T07:27:33.436Z,24.11
2023-08-13T07:30:06.731Z,24.08
2023-08-13T07:32:40.149Z,24.16
2023-08-13T07:35:13.648Z,24.23
2023-08-13T07:37:46.082Z,24.29
2023-08-13T07:40:18.332Z,24.37
2023-08-13T07:42:50.773Z,24.42
2023-08-13T07:45:23.543Z,24.47
2023-08-13T07:47:56.290Z,24.58
2023-08-13T07:50:29.446Z,24.54
2023-08-13T07:53:01.621Z,24.50
2023-08-13T07:55:34.052Z,24.50
2023-08-13T07:58:06.559Z,24.55
2023-08-13T08:00:38.938Z,24.54
2023-08-13T08:03:14.756Z,24.68
2023-08-13T08:05:51.369Z,24.76
2023-08-13T08:08:26.094Z,24.79
2023-08-13T08:10:58.295Z,24.79
2023-08-13T08:13:33.318Z,24.73
2023-08-13T08:16:07.037Z,24.85
2023-08-13T08:18:43.969Z,24.81
2023-08-13T08:21:17.310Z,24.75
2023-08-13T08:23:50.715Z,24.77
2023-08-13T08:26:23.824Z,24.78
2023-08-13T08:28:56.908Z,24.79
2023-08-13T08:31:29.671Z,24.80
2023-08-13T08:34:02.277Z,24.82
2023-08-13T08:36:37.710Z,24.87
2023-08-13T08:39:11.097Z,24.89
2023-08-13T08:41:48.867Z,24.95
2023-08-13T08:44:23.592Z,24.89
2023-08-13T08:46:59.531Z,24.83
2023-08-13T08:49:34.516Z,24.99
2023-08-13T08:52:09.087Z,25.03
2023-08-13T08:54:43.297Z,25.09
2023-08-13T08:57:16.296Z,25.18
2023-08-13T08:59:50.374Z,25.18
2023-08-13T09:02:25.087Z,25.13
2023-08-13T09:04:59.260Z,25.16
2023-08-13T09:07:35.595Z,25.16
2023-08-13T09:10:09.480Z,25.09
2023-08-13T09:12:44.158Z,25.27
2023-08-13T09:15:17.319Z,25.43
2023-08-13T09:17:51.305Z,25.49
2023-08-13T09:20:25.416Z,25.61
2023-08-13T09:23:02.794Z,25.57
2023-08-13T09:25:35.851Z,25.59
2023-08-13T09:28:09.680Z,25.65
2023-08-13T09:30:42.496Z,25.72
2023-08-13T09:33:18.257Z,25.71
2023-08-13T09:35:51.303Z,25.66
2023-08-13T09:38:25.474Z,25.75
2023-08-13T09:40:59.066Z,25.79
2023-08-13T09:43:33.867Z,25.85
2023-08-13T09:46:10.229Z,25.83
2023-08-13T09:48:48.691Z,25.93
2023-08-13T09:51:37.039Z,26.00
2023-08-13T09:54:17.003Z,25.96
2023-08-13T09:56:56.305Z,26.05
2023-08-13T09:59:30.266Z,26.08
2023-08-13T10:02:07.016Z,26.09
2023-08-13T10:04:41.317Z,26.05
2023-08-13T10:07:15.196Z,26.13
2023-08-13T10:09:58.949Z,26.20
2023-08-13T10:12:39.478Z,26.24
2023-08-13T10:15:12.730Z,26.21
2023-08-13T10:17:48.238Z,26.30
2023-08-13T10:20:22.466Z,26.36
2023-08-13T10:22:55.858Z,26.36
2023-08-13T10:25:31.208Z,26.35
2023-08-13T10:28:21.154Z,26.31
2023-08-13T10:31:13.513Z,26.22
2023-08-13T10:33:46.679Z,26.11
2023-08-13T10:36:20.343Z,26.06
2023-08-13T10:38:52.729Z,26.18
2023-08-13T10:41:36.436Z,26.30
2023-08-13T10:44:32.326Z,26.41
2023-08-13T10:47:05.814Z,26.55
2023-08-13T10:49:42.716Z,26.65
2023-08-13T10:52:17.316Z,26.79
2023-08-13T10:54:50.580Z,26.84
2023-08-13T10:57:30.589Z,26.93
2023-08-13T11:00:04.199Z,27.10
2023-08-13T11:02:36.606Z,27.08
2023-08-13T11:05:09.652Z,27.08
2023-08-13T11:07:44.823Z,27.07
2023-08-13T11:10:20.666Z,27.04
2023-08-13T11:12:53.404Z,27.08
2023-08-13T11:15:29.697Z,27.09
2023-08-13T11:18:02.252Z,27.25
2023-08-13T11:20:35.633Z,27.33
2023-08-13T11:23:11.161Z,27.46
2023-08-13T11:25:44.000Z,27.55
2023-08-13T11:28:21.559Z,27.58
2023-08-13T11:30:55.250Z,27.66
2023-08-13T11:33:30.530Z,27.70
2023-08-13T11:36:03.118Z,27.85
2023-08-13T11:38:35.765Z,27.98
2023-08-13T11:41:15.564Z,28.08
2023-08-13T11:43:56.260Z,28.13
2023-08-13T11:46:28.800Z,28.15
2023-08-13T11:49:04.538Z,28.34
2023-08-13T11:51:43.312Z,28.36
2023-08-13T11:54:15.698Z,28.37
2023-08-13T11:56:49.997Z,28.43
2023-08-13T11:59:31.332Z,28.48
2023-08-13T12:02:04.496Z,28.25
2023-08-13T12:04:38.124Z,28.26
2023-08-13T12:07:12.891Z,28.16
2023-08-13T12:09:45.086Z,28.18
2023-08-13T12:12:17.630Z,28.15
2023-08-13T12:14:51.494Z,28.29
2023-08-13T12:17:25.928Z,28.38
2023-08-13T12:19:58.266Z,28.40
2023-08-13T12:22:30.636Z,28.33
2023-08-13T12:25:03.189Z,28.32
2023-08-13T12:27:35.778Z,28.29
2023-08-13T12:30:09.822Z,28.22
2023-08-13T12:32:42.427Z,28.25
2023-08-13T12:35:14.728Z,28.20
2023-08-13T12:37:48.527Z,28.00
2023-08-13T12:40:20.820Z,27.87
2023-08-13T12:42:53.223Z,27.95
2023-08-13T12:45:25.573Z,28.17
2023-08-13T12:47:58.000Z,28.10
2023-08-13T12:50:30.555Z,28.36
2023-08-13T12:53:06.310Z,28.53
2023-08-13T12:55:39.117Z,28.62
2023-08-13T12:58:12.686Z,28.70
2023-08-13T13:00:45.613Z,28.89
2023-08-13T13:03:17.765Z,29.03
2023-08-13T13:05:50.523Z,29.11
2023-08-13T13:08:22.752Z,29.06
2023-08-13T13:10:55.058Z,29.17
2023-08-13T13:13:29.528Z,29.28
2023-08-13T13:16:01.895Z,29.23
2023-08-13T13:18:34.221Z,29.30
2023-08-13T13:21:06.820Z,29.26
2023-08-13T13:23:42.839Z,29.30
2023-08-13T13:26:17.816Z,29.03
2023-08-13T13:28:51.568Z,28.91
2023-08-13T13:31:23.707Z,28.66
2023-08-13T13:33:56.100Z,28.53
2023-08-13T13:36:28.421Z,28.47
2023-08-13T13:39:00.722Z,28.46
2023-08-13T13:41:33.235Z,28.31
2023-08-13T13:44:07.049Z,28.09
2023-08-13T13:46:39.317Z,28.05
2023-08-13T13:49:12.125Z,28.05
2023-08-13T13:51:45.036Z,28.08
2023-08-13T13:54:17.573Z,28.45
2023-08-13T13:56:49.964Z,28.74
2023-08-13T13:59:22.395Z,28.56
2023-08-13T14:01:54.795Z,28.50
2023-08-13T14:04:28.190Z,28.64
2023-08-13T14:07:00.749Z,28.73
2023-08-13T14:09:33.129Z,28.97
2023-08-13T14:12:05.649Z,29.04
2023-08-13T14:14:38.129Z,29.06
2023-08-13T14:17:10.426Z,29.13
2023-08-13T14:19:44.068Z,29.12
2023-08-13T14:22:17.162Z,29.26
2023-08-13T14:24:49.682Z,29.08
2023-08-13T14:27:24.127Z,29.13
2023-08-13T14:29:58.797Z,29.13
2023-08-13T14:32:31.288Z,29.09
2023-08-13T14:35:03.641Z,29.04
2023-08-13T14:37:35.895Z,29.07
2023-08-13T14:40:10.032Z,29.11
2023-08-13T14:42:42.301Z,29.08
2023-08-13T14:45:15.282Z,29.21
2023-08-13T14:47:47.629Z,29.27
2023-08-13T14:50:20.897Z,29.32
2023-08-13T14:52:53.012Z,29.47
2023-08-13T14:55:25.364Z,29.58
2023-08-13T14:57:57.975Z,29.57
2023-08-13T15:00:30.699Z,29.46
2023-08-13T15:03:03.441Z,29.30
2023-08-13T15:05:36.715Z,29.23
2023-08-13T15:08:09.133Z,29.19
2023-08-13T15:10:41.399Z,29.13
2023-08-13T15:13:17.548Z,29.01
2023-08-13T15:15:50.133Z,28.92
2023-08-13T15:18:22.489Z,28.82
2023-08-13T15:20:56.687Z,28.70
2023-08-13T15:23:29.142Z,28.66
2023-08-13T15:26:01.985Z,28.55
2023-08-13T15:28:37.167Z,28.44
2023-08-13T15:31:11.073Z,28.38
2023-08-13T15:33:43.596Z,28.43
2023-08-13T15:36:15.853Z,28.36
2023-08-13T15:38:48.372Z,28.40
2023-08-13T15:41:21.140Z,28.35
2023-08-13T15:43:53.715Z,28.28
2023-08-13T15:46:28.340Z,28.22
2023-08-13T15:49:03.486Z,28.18
2023-08-13T15:51:35.760Z,28.17
2023-08-13T15:54:09.940Z,28.04
2023-08-13T15:56:42.683Z,27.99
2023-08-13T15:59:15.380Z,27.91
2023-08-13T16:01:50.717Z,27.95
2023-08-13T16:04:21.569Z,27.79
2023-08-13T16:06:53.985Z,27.79
2023-08-13T16:09:26.437Z,27.76
2023-08-13T16:11:58.671Z,27.73
2023-08-13T16:14:31.385Z,27.65
2023-08-13T16:17:04.181Z,27.58
2023-08-13T16:19:38.220Z,27.57
2023-08-13T16:22:10.511Z,27.54
2023-08-13T16:24:42.672Z,27.50
2023-08-13T16:27:14.880Z,27.42
2023-08-13T16:29:47.726Z,27.41
2023-08-13T16:32:29.552Z,27.32
2023-08-13T16:35:03.124Z,27.32
2023-08-13T16:37:36.657Z,27.28
2023-08-13T16:40:11.287Z,27.28
2023-08-13T16:42:55.294Z,27.28
2023-08-13T16:45:35.720Z,27.24
2023-08-13T16:48:08.743Z,27.19
2023-08-13T16:50:41.363Z,27.17
2023-08-13T16:53:13.549Z,27.15
2023-08-13T16:55:46.040Z,27.10
2023-08-13T16:58:18.879Z,27.07
2023-08-13T17:00:51.683Z,27.02
2023-08-13T17:03:24.637Z,26.98
2023-08-13T17:05:57.206Z,26.94
2023-08-13T17:08:29.465Z,26.82
2023-08-13T17:11:02.067Z,26.85
2023-08-13T17:13:34.353Z,26.81
2023-08-13T17:16:09.621Z,26.69
2023-08-13T17:18:42.152Z,26.72
2023-08-13T17:21:17.204Z,26.68
2023-08-13T17:23:49.459Z,26.64
2023-08-13T17:26:22.357Z,26.59
2023-08-13T17:28:54.947Z,26.55
2023-08-13T17:31:27.613Z,26.49
2023-08-13T17:34:00.280Z,26.44
2023-08-13T17:36:32.588Z,26.38
2023-08-13T17:39:04.974Z,26.32
2023-08-13T17:41:37.518Z,26.25
2023-08-13T17:44:10.496Z,26.23
2023-08-13T17:46:42.951Z,26.14
2023-08-13T17:49:15.274Z,26.15
2023-08-13T17:51:47.590Z,26.10
2023-08-13T17:54:21.528Z,26.06
2023-08-13T17:56:54.033Z,26.03
2023-08-13T17:59:27.314Z,25.90
2023-08-13T18:02:01.482Z,25.95
2023-08-13T18:04:34.018Z,25.94
2023-08-13T18:07:06.546Z,25.91
2023-08-13T18:09:39.019Z,25.86
2023-08-13T18:12:12.499Z,25.85
2023-08-13T18:14:44.819Z,25.82
2023-08-13T18:17:17.380Z,25.78
2023-08-13T18:19:50.652Z,25.73
2023-08-13T18:22:23.233Z,25.68
2023-08-13T18:24:56.482Z,25.64
2023-08-13T18:27:28.993Z,25.58
2023-08-13T18:30:01.492Z,25.51
2023-08-13T18:32:34.074Z,25.45
2023-08-13T18:35:07.368Z,25.16
2023-08-13T18:37:39.582Z,24.94
2023-08-13T18:40:13.137Z,24.84
2023-08-13T18:42:45.561Z,24.69
2023-08-13T18:45:18.372Z,24.71
2023-08-13T18:47:50.757Z,24.69
2023-08-13T18:50:23.178Z,24.66
2023-08-13T18:52:57.212Z,24.61
2023-08-13T18:55:29.712Z,24.59
2023-08-13T18:58:02.729Z,24.56
2023-08-13T19:00:35.633Z,24.65
2023-08-13T19:03:08.535Z,24.66
2023-08-13T19:05:44.026Z,24.75
2023-08-13T19:08:17.419Z,24.64
2023-08-13T19:10:51.227Z,24.62
2023-08-13T19:13:29.911Z,24.75
2023-08-13T19:16:04.285Z,24.78
2023-08-13T19:18:41.837Z,24.75
2023-08-13T19:21:19.517Z,24.59
2023-08-13T19:23:54.005Z,24.65
2023-08-13T19:26:28.122Z,24.70
2023-08-13T19:29:01.033Z,24.71
2023-08-13T19:31:38.407Z,24.69
2023-08-13T19:34:12.329Z,24.67
2023-08-13T19:36:48.161Z,24.64
2023-08-13T19:39:23.195Z,24.61
2023-08-13T19:41:55.233Z,24.59
2023-08-13T19:44:37.779Z,24.50
2023-08-13T19:47:12.724Z,24.57
2023-08-13T19:49:44.919Z,24.53
2023-08-13T19:52:17.409Z,24.52
2023-08-13T19:54:50.325Z,24.50
2023-08-13T19:57:23.927Z,24.48
2023-08-13T19:59:57.232Z,24.44
2023-08-13T20:02:30.690Z,24.44
2023-08-13T20:05:03.390Z,24.44
2023-08-13T20:07:36.068Z,24.41
2023-08-13T20:10:09.247Z,24.39
2023-08-13T20:12:41.400Z,24.37
2023-08-13T20:15:14.900Z,24.35
2023-08-13T20:17:47.310Z,24.25
2023-08-13T20:20:20.010Z,24.30
2023-08-13T20:22:52.184Z,24.28
2023-08-13T20:25:24.712Z,24.26
2023-08-13T20:27:57.016Z,24.25
2023-08-13T20:30:29.187Z,24.24
2023-08-13T20:33:01.953Z,24.24
2023-08-13T20:35:34.577Z,24.22
2023-08-13T20:38:07.120Z,24.21
2023-08-13T20:40:39.374Z,24.20
2023-08-13T20:43:11.733Z,24.18
2023-08-13T20:45:44.304Z,24.17
2023-08-13T20:48:18.841Z,24.16
2023-08-13T20:50:52.565Z,24.15
2023-08-13T20:53:24.906Z,24.13
2023-08-13T20:55:57.261Z,24.06
2023-08-13T20:58:29.415Z,24.07
2023-08-13T21:01:01.727Z,24.11
2023-08-13T21:03:34.278Z,24.10
2023-08-13T21:06:06.870Z,24.00
2023-08-13T21:08:39.506Z,24.08
2023-08-13T21:11:11.870Z,24.06
2023-08-13T21:13:44.276Z,24.05
2023-08-13T21:16:16.908Z,24.04
2023-08-13T21:18:50.237Z,24.03
2023-08-13T21:21:22.829Z,24.02
2023-08-13T21:23:56.340Z,23.94
2023-08-13T21:26:28.818Z,24.02
2023-08-13T21:29:00.960Z,24.01
2023-08-13T21:31:33.551Z,24.00
2023-08-13T21:34:05.858Z,23.99
2023-08-13T21:36:38.835Z,23.99
2023-08-13T21:39:12.545Z,23.99
2023-08-13T21:41:45.514Z,23.98
2023-08-13T21:44:18.272Z,23.97
2023-08-13T21:46:51.005Z,23.97
2023-08-13T21:49:23.908Z,23.97
2023-08-13T21:51:56.613Z,23.96
2023-08-13T21:54:29.692Z,23.96
2023-08-13T21:57:02.581Z,23.93
2023-08-13T21:59:36.508Z,23.95
2023-08-13T22:02:10.848Z,23.94
2023-08-13T22:04:43.246Z,23.94
2023-08-13T22:07:16.163Z,23.93
2023-08-13T22:09:49.612Z,23.93
2023-08-13T22:12:22.291Z,23.93
2023-08-13T22:14:54.741Z,23.91
2023-08-13T22:17:27.342Z,23.84
2023-08-13T22:20:00.502Z,23.92
2023-08-13T22:22:33.388Z,23.91
2023-08-13T22:25:06.943Z,23.90
2023-08-13T22:27:39.711Z,23.83
2023-08-13T22:30:14.401Z,23.90
2023-08-13T22:32:46.555Z,23.89
2023-08-13T22:35:19.240Z,23.88
2023-08-13T22:37:51.994Z,23.88
2023-08-13T22:40:25.925Z,23.87
2023-08-13T22:42:58.999Z,23.89
2023-08-13T22:45:31.636Z,23.90
2023-08-13T22:48:04.898Z,23.90
2023-08-13T22:50:37.479Z,23.91
2023-08-13T22:53:10.516Z,23.89
2023-08-13T22:55:42.679Z,23.88
2023-08-13T22:58:15.132Z,23.87
2023-08-13T23:00:47.455Z,23.87
2023-08-13T23:03:21.340Z,23.87
2023-08-13T23:05:53.509Z,23.79
2023-08-13T23:08:26.442Z,23.87
2023-08-13T23:10:59.055Z,23.80
2023-08-13T23:13:31.295Z,23.87
2023-08-13T23:16:03.520Z,23.86
2023-08-13T23:18:35.842Z,23.85
2023-08-13T23:21:08.250Z,23.84
2023-08-13T23:23:41.186Z,23.83
2023-08-13T23:26:13.309Z,23.82
2023-08-13T23:28:46.473Z,23.81
2023-08-13T23:31:19.029Z,23.80
2023-08-13T23:33:51.654Z,23.79
2023-08-13T23:36:24.374Z,23.81
2023-08-13T23:38:56.769Z,23.79
2023-08-13T23:41:29.588Z,23.77
2023-08-13T23:44:01.724Z,23.76
2023-08-13T23:46:34.096Z,23.66
2023-08-13T23:49:06.653Z,23.65
2023-08-13T23:51:39.415Z,23.72
2023-08-13T23:54:11.783Z,23.72
2023-08-13T23:56:43.991Z,23.71
2023-08-13T23:59:16.388Z,23.69
